Time;durP1;ratioP1;P1;durP2;ratioP2;P2;SDS_P1;SDS_P2;PMS_P1;PMS_P2;Temp;Humidity;BMP_temperature;BMP_pressure;BME280_temperature;BME280_humidity;BME280_pressure;Samples;Min_cycle;Max_cycle;Signal;HPM_P1;HPM_P2
2022/07/29 00:00:26;;;;;;;7.57;4.10;;;20.00;99.90;;;;;;4989398;28;20438;-77
2022/07/29 00:02:55;;;;;;;5.30;4.38;;;20.00;99.90;;;;;;4995560;28;20029;-79
2022/07/29 00:05:20;;;;;;;5.63;4.50;;;20.00;99.90;;;;;;4994951;28;20033;-78
2022/07/29 00:07:49;;;;;;;5.78;4.10;;;20.00;99.90;;;;;;4996133;28;20030;-78
2022/07/29 00:10:17;;;;;;;5.78;4.22;;;20.00;99.90;;;;;;4993941;28;20037;-78
2022/07/29 00:12:46;;;;;;;11.27;4.70;;;19.90;99.90;;;;;;4992931;28;20045;-78
2022/07/29 00:15:12;;;;;;;5.78;4.10;;;19.90;99.90;;;;;;5004027;28;20032;-78
2022/07/29 00:17:38;;;;;;;7.85;4.65;;;20.00;99.90;;;;;;4990821;28;20122;-78
2022/07/29 00:20:04;;;;;;;5.28;4.20;;;19.90;99.90;;;;;;4989391;28;20026;-78
2022/07/29 00:22:30;;;;;;;5.80;3.70;;;19.90;99.90;;;;;;4989804;28;20036;-78
2022/07/29 00:24:55;;;;;;;5.40;4.00;;;19.80;99.90;;;;;;4990657;28;20105;-78
2022/07/29 00:27:24;;;;;;;5.20;4.22;;;19.80;99.90;;;;;;5005352;28;20026;-78
2022/07/29 00:29:53;;;;;;;4.55;3.75;;;19.80;99.90;;;;;;5005824;28;20052;-79
2022/07/29 00:32:19;;;;;;;6.32;3.80;;;19.80;99.90;;;;;;5008544;28;20125;-79
2022/07/29 00:37:28;;;;;;;;;;;19.80;99.90;;;;;;4988123;28;20716;-78
2022/07/29 00:40:00;;;;;;;4.85;3.70;;;19.80;99.90;;;;;;4991693;28;19953;-78
2022/07/29 00:42:29;;;;;;;4.55;4.07;;;19.70;99.90;;;;;;5005411;28;20426;-77
2022/07/29 00:44:57;;;;;;;4.55;4.03;;;19.80;99.90;;;;;;5007485;28;20026;-80
2022/07/29 00:47:22;;;;;;;5.57;4.53;;;19.80;99.90;;;;;;4990068;28;20038;-80
2022/07/29 00:49:51;;;;;;;4.88;3.38;;;19.80;99.90;;;;;;4994162;28;20558;-79
2022/07/29 00:52:20;;;;;;;6.72;4.43;;;19.70;99.90;;;;;;4994855;28;22051;-78
2022/07/29 00:54:52;;;;;;;7.57;4.10;;;19.70;99.90;;;;;;4995002;28;20031;-79
2022/07/29 00:57:17;;;;;;;4.80;4.30;;;19.70;99.90;;;;;;4993567;28;20043;-78
2022/07/29 00:59:43;;;;;;;5.18;4.45;;;19.70;99.90;;;;;;4995571;28;20030;-80
2022/07/29 01:02:09;;;;;;;6.72;5.15;;;19.70;99.90;;;;;;4994764;28;20496;-78
2022/07/29 01:04:47;;;;;;;7.47;5.10;;;19.70;99.90;;;;;;4991832;28;20138;-80
2022/07/29 01:07:16;;;;;;;5.63;4.85;;;19.60;99.90;;;;;;5005237;28;20092;-80
2022/07/29 01:09:44;;;;;;;4.28;3.88;;;19.60;99.90;;;;;;4991305;28;20035;-79
2022/07/29 01:12:10;;;;;;;5.85;4.47;;;19.60;99.90;;;;;;4991395;28;20022;-79
2022/07/29 01:14:40;;;;;;;6.40;4.03;;;19.50;99.90;;;;;;5003970;28;20026;-79
2022/07/29 01:17:37;;;;;;;4.40;3.60;;;19.60;99.90;;;;;;4988010;28;20479;-80
2022/07/29 01:20:38;;;;;;;4.25;3.85;;;19.50;99.90;;;;;;4949952;28;20038;-78
2022/07/29 01:23:30;;;;;;;5.32;4.03;;;19.50;99.90;;;;;;5001499;28;20497;-77
2022/07/29 01:26:27;;;;;;;4.75;3.78;;;19.40;99.90;;;;;;4982843;28;20030;-77
2022/07/29 01:29:22;;;;;;;6.03;3.95;;;19.40;99.90;;;;;;4982867;28;20098;-77
2022/07/29 01:32:25;;;;;;;5.80;3.72;;;19.40;99.90;;;;;;4988112;28;20030;-77
2022/07/29 01:35:29;;;;;;;7.15;4.28;;;19.40;99.90;;;;;;5003929;28;20050;-76
2022/07/29 01:38:09;;;;;;;4.47;4.05;;;19.40;99.90;;;;;;4988543;28;20047;-78
2022/07/29 01:40:52;;;;;;;5.22;4.10;;;19.40;99.90;;;;;;5005258;28;20037;-79
2022/07/29 01:43:31;;;;;;;7.35;4.53;;;19.40;99.90;;;;;;4988545;28;20395;-77
2022/07/29 01:46:05;;;;;;;7.13;5.28;;;19.40;99.90;;;;;;4990853;28;20035;-78
2022/07/29 01:48:48;;;;;;;5.95;4.00;;;19.30;99.90;;;;;;4991957;28;20022;-80
2022/07/29 01:51:27;;;;;;;6.95;4.78;;;19.30;99.90;;;;;;4992079;28;21578;-80
2022/07/29 01:54:18;;;;;;;5.00;3.85;;;19.30;99.90;;;;;;4994733;28;20042;-80
2022/07/29 01:56:50;;;;;;;5.57;4.85;;;19.20;99.90;;;;;;4994478;28;20473;-80
2022/07/29 01:59:18;;;;;;;5.30;4.80;;;19.20;99.90;;;;;;4997037;28;20084;-79
2022/07/29 02:01:46;;;;;;;5.85;4.55;;;19.20;99.90;;;;;;4996252;28;20066;-79
2022/07/29 02:04:14;;;;;;;8.43;4.72;;;19.20;99.90;;;;;;5008495;28;20022;-81
2022/07/29 02:06:42;;;;;;;8.20;4.82;;;19.10;99.90;;;;;;4994247;28;20030;-79
2022/07/29 02:09:12;;;;;;;7.72;5.32;;;19.10;99.90;;;;;;4990659;28;20121;-78
2022/07/29 02:11:39;;;;;;;5.80;4.63;;;19.10;99.90;;;;;;4993219;28;20057;-76
2022/07/29 02:14:06;;;;;;;6.05;4.25;;;19.10;99.90;;;;;;4993762;28;20030;-79
2022/07/29 02:16:37;;;;;;;6.82;5.10;;;19.10;99.90;;;;;;4992138;28;20018;-77
2022/07/29 02:19:04;;;;;;;6.97;5.40;;;19.10;99.90;;;;;;4992225;28;20072;-78
2022/07/29 02:21:31;;;;;;;5.78;5.18;;;19.10;99.90;;;;;;4992708;28;20042;-76
2022/07/29 02:24:00;;;;;;;5.25;4.35;;;19.10;99.90;;;;;;4996175;28;20027;-78
2022/07/29 02:26:27;;;;;;;7.88;5.60;;;19.10;99.90;;;;;;5004006;23;20493;-80
2022/07/29 02:28:56;;;;;;;8.00;5.68;;;19.10;99.90;;;;;;5004629;28;20030;-80
2022/07/29 02:31:26;;;;;;;7.47;4.93;;;19.10;99.90;;;;;;5000147;28;20022;-80
2022/07/29 02:33:53;;;;;;;6.03;5.28;;;19.10;99.90;;;;;;5001024;28;20025;-80
2022/07/29 02:36:21;;;;;;;8.98;4.80;;;19.00;99.90;;;;;;5004650;28;20033;-80
2022/07/29 02:38:50;;;;;;;6.00;5.07;;;19.10;99.90;;;;;;5002559;28;20044;-80
2022/07/29 02:41:33;;;;;;;7.80;5.95;;;19.10;99.90;;;;;;5000267;28;20538;-80
2022/07/29 02:44:08;;;;;;;7.30;5.63;;;19.10;99.90;;;;;;5002380;28;20037;-80
2022/07/29 02:46:36;;;;;;;10.50;7.72;;;19.10;99.90;;;;;;5007946;28;20026;-80
2022/07/29 02:49:09;;;;;;;10.00;6.88;;;19.10;99.90;;;;;;5000859;28;20378;-80
2022/07/29 02:52:19;;;;;;;9.70;6.43;;;19.10;99.90;;;;;;4999805;28;20513;-80
2022/07/29 02:55:04;;;;;;;10.77;6.65;;;19.10;99.90;;;;;;4995324;28;20164;-80
2022/07/29 02:57:34;;;;;;;9.00;5.72;;;19.00;99.90;;;;;;5001032;28;20033;-81
2022/07/29 03:00:05;;;;;;;9.63;6.80;;;19.00;99.90;;;;;;4998506;28;20089;-80
2022/07/29 03:02:36;;;;;;;8.15;6.55;;;19.00;99.90;;;;;;5000398;28;20018;-79
2022/07/29 03:05:04;;;;;;;10.20;6.70;;;19.00;99.90;;;;;;5000746;28;20481;-80
2022/07/29 03:07:32;;;;;;;11.38;6.90;;;19.00;99.90;;;;;;5002427;28;20057;-80
2022/07/29 03:09:58;;;;;;;8.68;6.55;;;19.00;99.90;;;;;;4999566;28;20032;-78
2022/07/29 03:12:25;;;;;;;9.73;6.70;;;18.90;99.90;;;;;;5003129;28;20378;-80
2022/07/29 03:14:52;;;;;;;9.70;6.30;;;18.90;99.90;;;;;;5002982;28;20037;-80
2022/07/29 03:17:18;;;;;;;7.93;5.95;;;18.90;99.90;;;;;;5004964;28;20036;-79
2022/07/29 03:19:44;;;;;;;8.20;6.00;;;18.90;99.90;;;;;;5022591;28;20030;-79
2022/07/29 03:22:10;;;;;;;11.95;6.80;;;18.90;99.90;;;;;;5004846;28;20045;-80
2022/07/29 03:24:37;;;;;;;11.20;6.10;;;18.90;99.90;;;;;;4998349;28;20028;-80
2022/07/29 03:27:05;;;;;;;7.22;5.13;;;18.80;99.90;;;;;;5001622;28;20037;-79
2022/07/29 03:29:31;;;;;;;6.43;5.30;;;18.70;99.90;;;;;;5001726;28;20025;-79
2022/07/29 03:31:56;;;;;;;7.70;5.53;;;18.70;99.90;;;;;;5001394;28;20108;-79
2022/07/29 03:34:22;;;;;;;6.82;5.32;;;18.70;99.90;;;;;;5001295;28;20113;-80
2022/07/29 03:36:48;;;;;;;6.45;5.35;;;18.70;99.90;;;;;;5001512;28;20054;-79
2022/07/29 03:39:18;;;;;;;10.48;5.43;;;18.70;99.90;;;;;;5002219;28;20111;-80
2022/07/29 03:41:47;;;;;;;5.25;4.75;;;18.70;99.90;;;;;;5000067;28;20057;-80
2022/07/29 03:44:16;;;;;;;6.80;4.78;;;18.70;99.90;;;;;;5001537;28;20037;-80
2022/07/29 03:46:44;;;;;;;7.70;5.25;;;18.70;99.90;;;;;;5003504;28;20026;-80
2022/07/29 03:49:11;;;;;;;6.10;4.60;;;18.60;99.90;;;;;;5012786;28;20026;-80
2022/07/29 03:51:37;;;;;;;6.97;4.90;;;18.60;99.90;;;;;;4997964;28;20033;-80
2022/07/29 03:54:04;;;;;;;5.55;4.75;;;18.70;99.90;;;;;;4995960;28;20034;-80
2022/07/29 03:56:34;;;;;;;8.32;4.68;;;18.60;99.90;;;;;;5001701;28;20033;-80
2022/07/29 03:59:02;;;;;;;6.63;4.25;;;18.70;99.90;;;;;;5013980;28;20030;-80
2022/07/29 04:01:29;;;;;;;6.78;4.80;;;18.70;99.90;;;;;;4996989;28;20030;-80
2022/07/29 04:03:56;;;;;;;5.95;4.70;;;18.70;99.90;;;;;;5000214;28;20064;-79
2022/07/29 04:06:21;;;;;;;8.63;4.72;;;18.60;99.90;;;;;;4999658;28;20022;-77
2022/07/29 04:08:47;;;;;;;7.65;4.82;;;18.60;99.90;;;;;;5001949;28;20048;-78
2022/07/29 04:11:13;;;;;;;6.47;3.95;;;18.70;99.90;;;;;;5000938;28;20022;-79
2022/07/29 04:13:38;;;;;;;6.97;4.20;;;18.70;99.90;;;;;;5001671;28;20042;-81
2022/07/29 04:16:04;;;;;;;5.82;4.53;;;18.60;99.90;;;;;;5000144;28;20057;-80
2022/07/29 04:18:30;;;;;;;4.65;3.80;;;18.60;99.90;;;;;;5000977;28;20092;-80
2022/07/29 04:20:55;;;;;;;7.32;4.88;;;18.60;99.90;;;;;;5003295;28;20441;-80
2022/07/29 04:23:21;;;;;;;6.10;4.10;;;18.70;99.90;;;;;;5000426;28;20038;-80
2022/07/29 04:25:47;;;;;;;5.72;4.38;;;18.70;99.90;;;;;;5001867;28;20030;-80
2022/07/29 04:28:12;;;;;;;6.15;3.72;;;18.70;99.90;;;;;;5001939;28;20079;-82
2022/07/29 04:30:39;;;;;;;5.55;3.88;;;18.70;99.90;;;;;;4999158;28;20482;-83
2022/07/29 04:33:06;;;;;;;7.10;4.03;;;18.70;99.90;;;;;;4998252;28;20398;-84
2022/07/29 04:35:37;;;;;;;6.20;3.72;;;18.70;99.90;;;;;;5001496;28;20034;-84
2022/07/29 04:38:04;;;;;;;5.22;4.00;;;18.70;99.90;;;;;;4995964;28;20033;-83
2022/07/29 04:40:30;;;;;;;6.78;3.67;;;18.70;99.90;;;;;;4999976;28;20030;-84
2022/07/29 04:42:55;;;;;;;6.50;4.68;;;18.80;99.90;;;;;;4997911;28;20037;-82
2022/07/29 04:45:21;;;;;;;6.13;4.57;;;18.80;99.90;;;;;;5003331;28;20040;-77
2022/07/29 04:47:47;;;;;;;5.90;4.95;;;18.80;99.90;;;;;;5001638;28;20512;-77
2022/07/29 04:50:13;;;;;;;9.63;5.45;;;18.80;99.90;;;;;;4999852;28;20022;-81
2022/07/29 04:52:38;;;;;;;13.23;6.97;;;18.90;99.90;;;;;;5001464;28;20830;-76
2022/07/29 04:55:06;;;;;;;11.27;7.30;;;18.90;99.90;;;;;;5000393;28;20378;-77
2022/07/29 04:57:32;;;;;;;10.48;7.22;;;19.00;99.90;;;;;;5000498;28;20591;-77
2022/07/29 04:59:58;;;;;;;9.63;6.85;;;19.00;99.90;;;;;;5003229;28;20030;-77
2022/07/29 05:02:23;;;;;;;9.30;6.47;;;19.10;99.90;;;;;;5004361;28;20032;-77
2022/07/29 05:04:49;;;;;;;9.52;6.32;;;19.00;99.90;;;;;;4998665;28;20026;-76
2022/07/29 05:07:14;;;;;;;10.18;7.00;;;19.00;99.90;;;;;;4995268;28;20101;-77
2022/07/29 05:09:40;;;;;;;9.93;6.28;;;19.10;99.90;;;;;;4997089;28;20117;-77
2022/07/29 05:12:06;;;;;;;9.90;6.82;;;19.10;99.90;;;;;;4998831;28;20084;-76
2022/07/29 05:14:32;;;;;;;7.97;6.95;;;19.00;99.90;;;;;;5000306;28;20034;-77
2022/07/29 05:16:58;;;;;;;8.80;7.03;;;19.00;99.90;;;;;;4999241;28;20045;-75
2022/07/29 05:19:24;;;;;;;8.32;6.45;;;19.10;99.90;;;;;;5001882;28;20026;-77
2022/07/29 05:21:50;;;;;;;9.13;6.20;;;19.20;99.90;;;;;;4999969;28;20041;-81
2022/07/29 05:24:16;;;;;;;6.63;5.75;;;19.30;99.90;;;;;;5003203;28;20029;-80
2022/07/29 05:26:42;;;;;;;5.90;5.30;;;19.30;99.90;;;;;;4996219;28;20073;-79
2022/07/29 05:29:08;;;;;;;7.95;5.78;;;19.50;99.90;;;;;;5001853;28;20044;-78
2022/07/29 05:31:34;;;;;;;14.73;5.80;;;19.60;99.90;;;;;;4999543;28;20029;-80
2022/07/29 05:34:00;;;;;;;7.05;5.25;;;19.80;99.90;;;;;;4999442;28;20026;-81
2022/07/29 05:36:25;;;;;;;7.60;5.40;;;19.90;99.90;;;;;;5000831;28;20023;-81
2022/07/29 05:38:51;;;;;;;6.55;5.53;;;20.10;99.90;;;;;;5001501;28;20580;-81
2022/07/29 05:41:18;;;;;;;7.30;4.88;;;20.30;99.90;;;;;;4998982;28;20026;-80
2022/07/29 05:43:44;;;;;;;7.35;4.68;;;20.50;99.90;;;;;;5013250;28;20444;-80
2022/07/29 05:46:09;;;;;;;7.60;5.65;;;20.60;99.90;;;;;;5004062;28;20038;-80
2022/07/29 05:48:35;;;;;;;7.75;6.15;;;20.80;99.90;;;;;;5000982;28;20376;-79
2022/07/29 05:51:01;;;;;;;8.15;5.97;;;20.90;99.90;;;;;;4996730;28;20494;-80
2022/07/29 05:53:27;;;;;;;7.70;6.10;;;20.90;99.90;;;;;;5002165;28;20364;-80
2022/07/29 05:55:52;;;;;;;7.30;5.82;;;20.90;99.90;;;;;;5001494;28;20038;-80
2022/07/29 05:58:18;;;;;;;8.93;6.43;;;21.00;99.90;;;;;;5004745;28;20041;-80
2022/07/29 06:00:44;;;;;;;9.32;6.95;;;21.00;99.90;;;;;;5000870;28;20052;-80
2022/07/29 06:03:10;;;;;;;8.55;6.50;;;20.90;99.90;;;;;;4998578;28;20577;-80
2022/07/29 06:05:36;;;;;;;8.60;6.30;;;20.90;99.90;;;;;;5001318;28;20038;-79
2022/07/29 06:08:02;;;;;;;7.38;6.57;;;20.80;99.90;;;;;;5004013;28;20504;-79
2022/07/29 06:10:28;;;;;;;7.18;6.10;;;20.80;99.90;;;;;;4997421;28;20037;-80
2022/07/29 06:12:54;;;;;;;8.65;6.30;;;20.70;99.90;;;;;;4994239;28;20505;-79
2022/07/29 06:15:19;;;;;;;7.35;5.30;;;20.80;99.90;;;;;;5002899;28;20513;-80
2022/07/29 06:17:45;;;;;;;8.02;6.03;;;20.80;99.90;;;;;;4997114;28;20076;-82
2022/07/29 06:20:11;;;;;;;11.60;6.63;;;20.80;99.90;;;;;;5001406;28;23355;-81
2022/07/29 06:22:36;;;;;;;9.15;5.97;;;20.80;99.90;;;;;;5001103;28;20033;-82
2022/07/29 06:25:03;;;;;;;8.82;5.97;;;20.80;99.90;;;;;;5002740;28;20093;-81
2022/07/29 06:27:29;;;;;;;24.83;7.68;;;20.80;99.90;;;;;;5001577;28;20022;-81
2022/07/29 06:29:56;;;;;;;14.40;6.13;;;20.90;99.90;;;;;;5000215;28;20395;-81
2022/07/29 06:32:22;;;;;;;13.57;6.22;;;20.90;99.90;;;;;;5006082;28;20029;-82
2022/07/29 06:34:48;;;;;;;12.25;6.38;;;20.90;99.90;;;;;;5000161;28;20064;-81
2022/07/29 06:37:14;;;;;;;9.38;6.63;;;20.90;99.90;;;;;;4997408;28;20080;-81
2022/07/29 06:39:39;;;;;;;8.93;5.78;;;20.90;99.90;;;;;;4997413;28;20029;-81
2022/07/29 06:42:05;;;;;;;8.18;5.03;;;21.00;99.90;;;;;;5000157;28;20277;-81
2022/07/29 06:44:33;;;;;;;11.20;5.72;;;21.00;99.90;;;;;;5002048;28;20405;-81
2022/07/29 06:46:58;;;;;;;4.90;4.00;;;21.10;99.90;;;;;;5000425;28;20022;-81
2022/07/29 06:49:25;;;;;;;7.20;4.45;;;21.20;99.90;;;;;;4995319;28;20022;-81
2022/07/29 06:51:51;;;;;;;5.78;3.65;;;21.40;99.90;;;;;;4997338;28;20118;-82
2022/07/29 06:54:17;;;;;;;5.63;3.95;;;21.60;99.90;;;;;;5001628;28;20482;-82
2022/07/29 06:56:43;;;;;;;5.07;3.47;;;21.80;99.90;;;;;;5006189;28;20083;-83
2022/07/29 06:59:10;;;;;;;6.88;2.88;;;21.90;99.90;;;;;;5009396;28;20029;-81
2022/07/29 07:01:37;;;;;;;6.95;3.15;;;22.10;99.90;;;;;;5010529;28;20044;-80
2022/07/29 07:04:03;;;;;;;8.00;3.78;;;22.20;99.90;;;;;;4985537;28;20548;-80
2022/07/29 07:06:29;;;;;;;6.88;3.45;;;22.20;99.90;;;;;;5000919;28;20030;-80
2022/07/29 07:08:54;;;;;;;4.53;3.20;;;22.30;99.90;;;;;;4992952;28;20045;-83
2022/07/29 07:11:20;;;;;;;5.75;3.40;;;22.40;99.90;;;;;;4986917;28;20046;-83
2022/07/29 07:13:46;;;;;;;5.28;3.67;;;22.40;99.90;;;;;;4988796;28;20030;-85
2022/07/29 07:16:11;;;;;;;5.15;3.35;;;22.60;99.90;;;;;;4990696;28;20033;-84
2022/07/29 07:18:37;;;;;;;5.63;2.83;;;22.70;99.90;;;;;;4984952;28;20030;-82
2022/07/29 07:21:04;;;;;;;5.57;2.80;;;22.70;99.90;;;;;;4987378;28;20041;-83
2022/07/29 07:23:30;;;;;;;4.68;3.05;;;22.70;99.90;;;;;;4992219;28;20026;-81
2022/07/29 07:25:56;;;;;;;4.55;3.28;;;22.80;99.90;;;;;;4992755;28;20022;-81
2022/07/29 07:28:21;;;;;;;3.83;2.78;;;22.80;99.90;;;;;;4989809;23;20461;-76
2022/07/29 07:30:47;;;;;;;6.35;3.13;;;22.80;99.90;;;;;;4984098;28;20033;-74
2022/07/29 07:33:14;;;;;;;3.97;2.75;;;22.80;99.90;;;;;;4997956;28;20065;-73
2022/07/29 07:35:40;;;;;;;3.50;2.88;;;22.90;99.90;;;;;;4990494;28;20034;-75
2022/07/29 07:38:06;;;;;;;5.63;3.20;;;23.00;99.90;;;;;;4982748;28;20014;-75
2022/07/29 07:40:31;;;;;;;7.97;3.22;;;23.10;99.90;;;;;;5003055;23;20133;-76
2022/07/29 07:42:57;;;;;;;5.63;2.83;;;23.10;99.90;;;;;;5006430;28;20038;-77
2022/07/29 07:45:26;;;;;;;5.57;3.10;;;23.30;99.90;;;;;;4990035;28;20022;-76
2022/07/29 07:47:52;;;;;;;4.20;3.05;;;23.30;99.90;;;;;;4989561;28;20419;-75
2022/07/29 07:50:18;;;;;;;3.85;2.92;;;23.40;99.90;;;;;;4985656;28;20324;-76
2022/07/29 07:52:51;;;;;;;5.45;3.10;;;23.50;99.90;;;;;;4990262;28;20015;-77
2022/07/29 07:55:18;;;;;;;6.13;2.80;;;23.50;99.90;;;;;;4990346;28;20018;-76
2022/07/29 07:57:47;;;;;;;7.22;3.17;;;23.60;99.90;;;;;;4987593;28;20018;-77
2022/07/29 08:00:14;;;;;;;4.28;2.97;;;23.70;99.90;;;;;;4989865;28;20106;-77
2022/07/29 08:02:40;;;;;;;6.82;3.17;;;23.80;99.90;;;;;;4988117;28;20057;-76
2022/07/29 08:05:10;;;;;;;3.65;2.80;;;23.90;99.90;;;;;;4990993;28;20486;-76
2022/07/29 08:07:35;;;;;;;3.83;3.00;;;24.00;99.90;;;;;;4988521;28;20443;-75
2022/07/29 08:10:02;;;;;;;6.80;3.08;;;24.10;99.90;;;;;;4991041;28;20037;-76
2022/07/29 08:12:27;;;;;;;4.72;2.78;;;24.20;99.90;;;;;;4991806;28;20121;-76
2022/07/29 08:14:53;;;;;;;4.32;2.80;;;24.30;99.90;;;;;;4991475;28;20531;-76
2022/07/29 08:17:19;;;;;;;4.50;3.20;;;24.40;99.90;;;;;;4989785;28;20080;-76
2022/07/29 08:19:50;;;;;;;9.30;3.00;;;24.50;99.90;;;;;;4989911;28;20499;-76
2022/07/29 08:22:19;;;;;;;6.72;2.75;;;24.50;99.90;;;;;;4988381;28;20495;-75
2022/07/29 08:25:03;;;;;;;5.75;3.45;;;24.60;99.70;;;;;;4987807;28;20373;-75
2022/07/29 08:27:32;;;;;;;4.97;2.85;;;24.60;99.20;;;;;;4983505;28;20451;-76
2022/07/29 08:30:07;;;;;;;6.18;3.13;;;24.70;98.70;;;;;;4988360;28;20053;-76
2022/07/29 08:32:35;;;;;;;4.97;2.80;;;24.70;97.70;;;;;;4990403;28;20545;-76
2022/07/29 08:35:05;;;;;;;5.43;3.03;;;24.80;96.60;;;;;;4991475;28;20105;-75
2022/07/29 08:37:33;;;;;;;6.50;2.85;;;24.80;96.10;;;;;;4993526;28;20019;-76
2022/07/29 08:39:59;;;;;;;3.78;3.00;;;24.80;95.70;;;;;;4990375;28;20085;-76
2022/07/29 08:42:31;;;;;;;5.47;2.88;;;24.90;95.90;;;;;;4989691;28;20038;-76
2022/07/29 08:44:59;;;;;;;5.22;2.80;;;25.00;95.60;;;;;;4990136;28;20035;-76
2022/07/29 08:47:32;;;;;;;7.32;2.78;;;25.00;95.20;;;;;;4990628;28;20126;-76
2022/07/29 08:49:58;;;;;;;3.92;2.40;;;25.10;94.90;;;;;;4991085;28;20026;-76
2022/07/29 08:52:32;;;;;;;4.03;2.90;;;25.10;94.30;;;;;;4989897;28;20066;-76
2022/07/29 08:54:58;;;;;;;7.32;3.00;;;25.10;93.90;;;;;;4986077;28;20034;-75
2022/07/29 08:57:25;;;;;;;5.47;2.53;;;25.20;94.20;;;;;;4986034;28;20030;-76
2022/07/29 08:59:52;;;;;;;5.90;2.75;;;25.20;94.40;;;;;;4992592;28;20053;-76
2022/07/29 09:02:28;;;;;;;5.72;3.15;;;25.20;93.70;;;;;;4989912;28;20515;-76
2022/07/29 09:05:00;;;;;;;4.28;3.25;;;25.30;92.70;;;;;;4989905;28;20372;-76
2022/07/29 09:07:26;;;;;;;4.53;2.90;;;25.30;92.80;;;;;;4988628;28;20037;-76
2022/07/29 09:09:51;;;;;;;5.53;2.60;;;25.40;92.30;;;;;;4989884;28;20379;-76
2022/07/29 09:12:17;;;;;;;4.32;2.83;;;25.30;92.00;;;;;;4990767;28;20031;-76
2022/07/29 09:14:43;;;;;;;6.55;2.85;;;25.30;91.80;;;;;;4988213;28;20034;-76
2022/07/29 09:17:12;;;;;;;4.00;3.13;;;25.30;91.80;;;;;;4993276;28;20030;-75
2022/07/29 09:19:44;;;;;;;3.55;2.65;;;25.30;92.10;;;;;;4991779;28;20039;-76
2022/07/29 09:22:30;;;;;;;5.28;3.00;;;25.30;92.20;;;;;;4990281;28;20032;-76
2022/07/29 09:24:58;;;;;;;7.45;2.90;;;25.40;92.30;;;;;;4986773;28;20106;-76
2022/07/29 09:27:28;;;;;;;4.55;3.33;;;25.50;92.40;;;;;;4988075;28;20520;-76
2022/07/29 09:30:13;;;;;;;6.05;3.35;;;25.50;92.30;;;;;;4989379;28;20302;-76
2022/07/29 09:33:01;;;;;;;4.45;3.17;;;25.50;91.60;;;;;;4990842;28;20026;-75
2022/07/29 09:35:35;;;;;;;4.10;2.70;;;25.60;92.00;;;;;;4979385;28;20026;-76
2022/07/29 09:38:13;;;;;;;9.23;3.00;;;25.70;91.50;;;;;;4990613;28;20035;-76
2022/07/29 09:40:39;;;;;;;3.63;3.17;;;25.70;91.10;;;;;;4989017;28;20046;-75
2022/07/29 09:43:12;;;;;;;5.93;3.00;;;25.80;91.00;;;;;;4991290;28;20368;-76
2022/07/29 09:45:38;;;;;;;9.20;3.05;;;25.90;90.60;;;;;;4990346;28;20027;-76
2022/07/29 09:48:18;;;;;;;5.13;3.17;;;25.90;90.70;;;;;;4990798;28;20391;-76
2022/07/29 09:50:48;;;;;;;7.32;3.28;;;26.10;91.10;;;;;;4990339;28;20105;-77
2022/07/29 09:53:33;;;;;;;4.85;3.10;;;26.20;90.90;;;;;;4990124;28;20073;-76
2022/07/29 09:55:59;;;;;;;10.15;3.67;;;26.30;90.80;;;;;;4981481;28;20115;-77
2022/07/29 09:58:25;;;;;;;4.30;3.35;;;26.40;90.90;;;;;;4990191;28;20153;-76
2022/07/29 10:00:52;;;;;;;9.07;3.10;;;26.50;90.60;;;;;;4990940;28;20093;-76
2022/07/29 10:03:18;;;;;;;5.18;2.70;;;26.60;90.00;;;;;;4991138;28;20101;-76
2022/07/29 10:05:45;;;;;;;3.95;3.40;;;26.60;89.50;;;;;;4984134;28;20501;-76
2022/07/29 10:08:12;;;;;;;3.65;3.28;;;26.60;88.00;;;;;;4990234;28;20114;-76
2022/07/29 10:10:44;;;;;;;6.15;3.33;;;26.60;86.90;;;;;;4993781;28;20018;-75
2022/07/29 10:13:13;;;;;;;10.80;4.00;;;26.60;86.40;;;;;;4993803;28;20023;-76
2022/07/29 10:15:45;;;;;;;6.43;3.88;;;26.60;86.90;;;;;;4992411;28;20049;-76
2022/07/29 10:18:12;;;;;;;3.78;3.08;;;26.50;87.00;;;;;;4993339;28;20039;-76
2022/07/29 10:20:39;;;;;;;7.25;3.38;;;26.60;87.60;;;;;;4994366;28;20030;-76
2022/07/29 10:23:05;;;;;;;6.55;3.95;;;26.50;87.60;;;;;;4992860;28;20458;-76
2022/07/29 10:25:34;;;;;;;5.68;3.25;;;26.60;86.60;;;;;;4989820;28;20030;-76
2022/07/29 10:27:59;;;;;;;6.38;3.70;;;26.60;86.20;;;;;;4992140;28;20030;-76
2022/07/29 10:30:26;;;;;;;5.60;3.97;;;26.50;86.20;;;;;;4992739;28;20030;-76
2022/07/29 10:33:18;;;;;;;5.10;3.35;;;26.50;86.30;;;;;;4990042;28;20029;-76
2022/07/29 10:36:07;;;;;;;4.00;3.22;;;26.60;86.70;;;;;;4990600;28;20387;-76
2022/07/29 10:38:47;;;;;;;5.45;3.25;;;26.60;85.10;;;;;;5007028;28;20105;-76
2022/07/29 10:41:46;;;;;;;7.63;3.92;;;26.70;84.50;;;;;;4981603;28;20157;-76
2022/07/29 10:44:25;;;;;;;3.88;3.55;;;26.80;84.20;;;;;;4982333;28;20022;-76
2022/07/29 10:46:54;;;;;;;8.45;3.58;;;27.00;83.50;;;;;;4988961;28;20099;-75
2022/07/29 10:49:29;;;;;;;4.65;3.47;;;27.10;82.80;;;;;;4991313;28;20061;-76
2022/07/29 10:52:07;;;;;;;7.35;3.65;;;27.10;82.00;;;;;;4992418;28;20026;-76
2022/07/29 10:54:52;;;;;;;5.60;3.33;;;27.20;80.50;;;;;;4994640;28;20105;-76
2022/07/29 10:57:31;;;;;;;3.95;3.13;;;27.20;80.10;;;;;;4984763;28;20365;-76
2022/07/29 11:00:13;;;;;;;4.95;3.30;;;27.30;80.50;;;;;;4987380;28;20452;-72
2022/07/29 11:02:47;;;;;;;6.22;3.17;;;27.40;80.30;;;;;;4986698;28;20463;-75
2022/07/29 11:05:18;;;;;;;6.13;3.40;;;27.40;80.10;;;;;;4985269;28;20037;-75
2022/07/29 11:08:12;;;;;;;6.20;3.50;;;27.50;80.70;;;;;;4981965;28;20038;-76
2022/07/29 11:10:39;;;;;;;6.88;3.60;;;27.60;80.90;;;;;;4983879;28;20085;-75
2022/07/29 11:13:11;;;;;;;6.40;3.28;;;27.60;80.30;;;;;;4981727;28;20054;-75
2022/07/29 11:15:57;;;;;;;10.07;2.92;;;27.70;80.30;;;;;;4986197;28;20446;-75
2022/07/29 11:18:23;;;;;;;5.88;3.40;;;27.80;79.10;;;;;;4985891;28;20034;-75
2022/07/29 11:20:50;;;;;;;6.32;3.72;;;27.90;80.00;;;;;;4999755;28;20711;-75
2022/07/29 11:23:39;;;;;;;5.35;3.33;;;27.90;79.30;;;;;;5005997;28;20414;-74
2022/07/29 11:26:21;;;;;;;11.07;3.40;;;28.00;79.10;;;;;;4991237;28;20033;-74
2022/07/29 11:28:53;;;;;;;5.32;3.25;;;28.10;78.00;;;;;;4981199;28;20038;-74
2022/07/29 11:31:32;;;;;;;4.28;3.33;;;28.20;77.90;;;;;;4983655;28;20023;-73
2022/07/29 11:34:21;;;;;;;3.30;2.92;;;28.30;78.20;;;;;;4983663;28;20458;-73
2022/07/29 11:37:06;;;;;;;5.78;3.13;;;28.30;75.20;;;;;;4984936;28;20396;-74
2022/07/29 11:39:33;;;;;;;7.00;3.42;;;28.30;75.00;;;;;;4982050;28;20045;-72
2022/07/29 11:42:23;;;;;;;6.40;2.70;;;28.30;74.40;;;;;;4984888;28;20518;-73
2022/07/29 11:45:07;;;;;;;4.88;3.50;;;28.30;75.90;;;;;;4983053;28;21351;-73
2022/07/29 11:47:36;;;;;;;5.30;3.10;;;27.90;77.50;;;;;;4982250;28;20022;-74
2022/07/29 11:50:05;;;;;;;5.15;3.15;;;27.70;79.20;;;;;;4983679;28;20026;-73
2022/07/29 11:52:36;;;;;;;5.63;3.50;;;27.50;79.80;;;;;;4982997;28;20037;-73
2022/07/29 11:55:04;;;;;;;8.23;3.65;;;27.30;79.80;;;;;;4981946;28;20030;-73
2022/07/29 11:57:30;;;;;;;4.75;3.88;;;27.10;80.10;;;;;;4982214;28;20035;-73
2022/07/29 11:59:59;;;;;;;4.63;3.38;;;26.90;80.50;;;;;;4980740;28;20057;-73
2022/07/29 12:02:37;;;;;;;5.00;4.05;;;26.80;81.00;;;;;;5000179;28;20049;-74
2022/07/29 12:05:03;;;;;;;6.63;3.70;;;26.70;81.70;;;;;;4982867;28;20022;-73
2022/07/29 12:07:33;;;;;;;5.53;3.50;;;26.50;82.00;;;;;;4981167;28;20472;-74
2022/07/29 12:10:00;;;;;;;5.40;4.40;;;26.30;83.20;;;;;;4985064;28;20053;-74
2022/07/29 12:12:26;;;;;;;7.20;4.10;;;26.10;85.20;;;;;;4986310;28;20034;-74
2022/07/29 12:14:51;;;;;;;7.30;3.92;;;25.70;87.30;;;;;;4985629;28;20034;-74
2022/07/29 12:17:30;;;;;;;6.18;3.58;;;25.40;88.70;;;;;;4983248;28;20038;-74
2022/07/29 12:19:58;;;;;;;6.35;3.75;;;25.20;89.70;;;;;;4979194;28;20049;-74
2022/07/29 12:22:40;;;;;;;8.50;3.90;;;24.90;90.60;;;;;;4981538;28;20027;-73
2022/07/29 12:25:11;;;;;;;6.97;3.63;;;24.60;91.10;;;;;;4979041;28;20126;-74
2022/07/29 12:28:00;;;;;;;5.18;3.63;;;24.40;91.80;;;;;;4978385;28;20026;-73
2022/07/29 12:30:38;;;;;;;6.15;3.70;;;24.20;91.80;;;;;;4983021;28;20029;-76
2022/07/29 12:33:27;;;;;;;6.03;3.85;;;24.10;94.20;;;;;;4981995;28;20064;-79
2022/07/29 12:36:01;;;;;;;8.38;4.15;;;23.80;94.40;;;;;;4981596;28;20169;-77
2022/07/29 12:38:28;;;;;;;7.57;4.25;;;23.60;95.00;;;;;;4983029;28;20076;-77
2022/07/29 12:40:54;;;;;;;14.82;6.55;;;23.50;95.80;;;;;;5002154;28;20030;-77
2022/07/29 12:43:24;;;;;;;6.43;3.90;;;23.50;98.20;;;;;;5002695;28;20037;-77
2022/07/29 12:45:54;;;;;;;9.45;5.63;;;23.40;99.20;;;;;;5001061;28;20034;-76
2022/07/29 12:48:37;;;;;;;6.53;4.57;;;23.30;99.90;;;;;;5003205;28;20083;-77
2022/07/29 12:51:12;;;;;;;6.00;3.90;;;23.20;99.90;;;;;;5005744;28;20033;-78
2022/07/29 12:54:10;;;;;;;6.20;4.40;;;23.10;99.90;;;;;;5000769;28;20045;-76
2022/07/29 12:56:41;;;;;;;8.15;4.78;;;23.00;99.90;;;;;;5002658;28;20022;-78
2022/07/29 12:59:17;;;;;;;9.15;5.43;;;23.00;99.90;;;;;;5001237;28;20021;-78
2022/07/29 13:01:44;;;;;;;8.13;4.88;;;23.10;99.90;;;;;;5002997;28;20041;-78
2022/07/29 13:04:27;;;;;;;7.78;4.75;;;23.20;99.90;;;;;;4999008;28;20022;-77